Time;durP1;ratioP1;P1;durP2;ratioP2;P2;SDS_P1;SDS_P2;PMS_P1;PMS_P2;Temp;Humidity;BMP_temperature;BMP_pressure;BME280_temperature;BME280_humidity;BME280_pressure;Samples;Min_cycle;Max_cycle;Signal;HPM_P1;HPM_P2
2021/08/14 00:01:31;;;;;;;2.50;2.03;;;20.80;98.00;;;;;;5055019;28;20452;-76
2021/08/14 00:03:58;;;;;;;2.97;1.90;;;20.80;98.00;;;;;;5072523;28;20488;-76
2021/08/14 00:06:25;;;;;;;1.40;1.37;;;20.70;98.00;;;;;;5072405;28;20568;-76
2021/08/14 00:08:52;;;;;;;1.40;1.30;;;20.70;98.00;;;;;;5054843;28;20506;-76
2021/08/14 00:11:19;;;;;;;1.50;1.40;;;20.60;98.00;;;;;;5072522;28;20498;-76
2021/08/14 00:13:46;;;;;;;1.83;1.70;;;20.60;98.00;;;;;;5072480;28;20457;-77
2021/08/14 00:16:17;;;;;;;2.20;2.07;;;20.60;98.00;;;;;;5072270;28;20456;-76
2021/08/14 00:18:44;;;;;;;2.20;1.70;;;20.60;98.00;;;;;;5072060;28;20461;-75
2021/08/14 00:21:13;;;;;;;1.60;1.60;;;20.50;98.00;;;;;;5072043;28;20495;-76
2021/08/14 00:23:40;;;;;;;1.70;1.53;;;20.50;98.00;;;;;;5052673;28;20483;-76
2021/08/14 00:26:07;;;;;;;1.60;1.50;;;20.60;98.00;;;;;;5071707;28;20516;-76
2021/08/14 00:28:34;;;;;;;2.07;1.60;;;20.50;98.00;;;;;;5071877;28;20480;-76
2021/08/14 00:31:01;;;;;;;1.93;1.70;;;20.50;98.00;;;;;;5071981;28;20554;-76
2021/08/14 00:33:29;;;;;;;2.17;1.80;;;20.40;98.00;;;;;;5071552;28;20524;-76
2021/08/14 00:35:56;;;;;;;2.90;1.80;;;20.40;98.00;;;;;;5071720;28;20539;-76
2021/08/14 00:38:23;;;;;;;1.60;1.53;;;20.30;98.00;;;;;;5071827;28;20492;-76
2021/08/14 00:40:50;;;;;;;1.90;1.50;;;20.20;98.00;;;;;;5054021;28;20452;-76
2021/08/14 00:43:18;;;;;;;1.70;1.60;;;20.10;98.00;;;;;;5071698;28;20464;-76
2021/08/14 00:45:45;;;;;;;2.97;1.60;;;20.20;98.00;;;;;;5071818;28;20579;-76
2021/08/14 00:48:12;;;;;;;1.57;1.43;;;20.10;98.00;;;;;;5071781;28;20503;-76
2021/08/14 00:50:41;;;;;;;1.90;1.80;;;20.10;98.00;;;;;;5071975;28;20452;-75
2021/08/14 00:53:08;;;;;;;2.27;1.40;;;20.10;98.00;;;;;;5071733;28;20975;-76
2021/08/14 00:55:35;;;;;;;2.67;2.00;;;20.00;98.00;;;;;;5071803;28;20452;-76
2021/08/14 00:58:02;;;;;;;2.17;1.50;;;19.90;98.00;;;;;;5071758;28;20488;-76
2021/08/14 01:00:29;;;;;;;1.67;1.40;;;19.90;98.00;;;;;;5071655;28;20866;-76
2021/08/14 01:02:57;;;;;;;2.33;2.10;;;19.80;98.00;;;;;;5071607;28;20928;-76
2021/08/14 01:05:24;;;;;;;2.00;1.63;;;19.80;98.00;;;;;;5071714;28;20590;-76
2021/08/14 01:07:53;;;;;;;2.87;1.77;;;19.80;98.00;;;;;;5071750;28;20503;-75
2021/08/14 01:10:24;;;;;;;2.20;1.97;;;19.80;98.00;;;;;;5071586;28;20544;-76
2021/08/14 01:12:51;;;;;;;4.50;1.57;;;19.90;98.00;;;;;;5071707;28;20475;-76
2021/08/14 01:15:19;;;;;;;1.97;1.67;;;19.90;98.00;;;;;;5071750;28;20493;-76
2021/08/14 01:17:46;;;;;;;2.03;1.70;;;19.90;98.00;;;;;;5070930;28;20485;-76
2021/08/14 01:20:15;;;;;;;2.07;1.60;;;19.80;98.00;;;;;;5071237;28;20548;-76
2021/08/14 01:22:42;;;;;;;1.57;1.50;;;19.70;98.00;;;;;;5071685;28;20456;-76
2021/08/14 01:25:11;;;;;;;2.40;2.00;;;19.70;98.00;;;;;;5071461;28;20829;-75
2021/08/14 01:27:41;;;;;;;2.67;1.83;;;19.80;98.00;;;;;;5072851;28;20538;-76
2021/08/14 01:30:10;;;;;;;1.93;1.90;;;19.70;98.00;;;;;;5075666;28;20535;-76
2021/08/14 01:32:38;;;;;;;2.40;2.07;;;19.70;98.00;;;;;;5075003;28;20461;-75
2021/08/14 01:35:06;;;;;;;2.47;1.90;;;19.70;98.00;;;;;;5074907;28;20553;-76
2021/08/14 01:37:34;;;;;;;2.87;2.20;;;19.70;98.00;;;;;;5075010;28;20506;-76
2021/08/14 01:40:02;;;;;;;1.50;1.30;;;19.70;98.00;;;;;;5074978;28;21024;-76
2021/08/14 01:42:29;;;;;;;1.30;1.30;;;19.70;98.00;;;;;;5075138;28;20464;-75
2021/08/14 01:44:57;;;;;;;3.00;1.97;;;19.70;98.00;;;;;;5074704;28;20492;-76
2021/08/14 01:47:24;;;;;;;2.87;2.10;;;19.70;98.00;;;;;;5074789;28;20495;-75
2021/08/14 01:49:51;;;;;;;1.57;1.50;;;19.60;98.00;;;;;;5074785;28;20891;-75
2021/08/14 01:52:19;;;;;;;2.23;1.60;;;19.50;98.00;;;;;;5074771;28;20488;-76
2021/08/14 01:54:47;;;;;;;2.17;1.70;;;19.50;98.00;;;;;;5074592;28;20496;-75
2021/08/14 01:57:16;;;;;;;1.53;1.43;;;19.50;98.00;;;;;;5074778;28;20535;-76
2021/08/14 01:59:43;;;;;;;2.30;1.53;;;19.40;98.00;;;;;;5074608;28;20456;-76
2021/08/14 02:02:11;;;;;;;2.23;2.00;;;19.40;98.00;;;;;;5074607;28;20464;-76
2021/08/14 02:04:39;;;;;;;1.30;1.20;;;19.50;98.00;;;;;;5074635;28;20452;-76
2021/08/14 02:07:06;;;;;;;3.40;1.47;;;19.40;98.00;;;;;;5074602;28;20523;-76
2021/08/14 02:09:33;;;;;;;1.90;1.53;;;19.30;98.00;;;;;;5074604;28;20500;-76
2021/08/14 02:12:00;;;;;;;1.60;1.53;;;19.10;98.00;;;;;;5056843;28;20513;-76
2021/08/14 02:14:28;;;;;;;1.77;1.67;;;19.20;98.00;;;;;;5074517;28;20538;-76
2021/08/14 02:16:55;;;;;;;2.20;1.90;;;19.10;98.00;;;;;;5074525;28;20464;-76
2021/08/14 02:19:24;;;;;;;1.80;1.53;;;19.10;98.00;;;;;;5074429;28;20503;-75
2021/08/14 02:21:51;;;;;;;2.90;2.17;;;19.20;98.00;;;;;;5074357;28;20456;-76
2021/08/14 02:24:18;;;;;;;2.77;1.30;;;19.20;98.00;;;;;;5074390;28;20457;-76
2021/08/14 02:26:45;;;;;;;2.40;1.80;;;19.20;98.00;;;;;;5074463;28;20484;-76
2021/08/14 02:29:12;;;;;;;2.00;1.63;;;19.30;98.00;;;;;;5056604;28;20485;-76
2021/08/14 02:31:40;;;;;;;3.00;1.40;;;19.20;98.00;;;;;;5074166;28;20453;-75
2021/08/14 02:34:07;;;;;;;1.60;1.50;;;19.30;98.00;;;;;;5056657;28;20506;-75
2021/08/14 02:36:35;;;;;;;2.00;1.63;;;19.20;98.00;;;;;;5074170;28;20854;-75
2021/08/14 02:39:02;;;;;;;2.60;1.60;;;19.20;98.00;;;;;;5072894;28;20508;-75
2021/08/14 02:41:36;;;;;;;2.70;1.60;;;19.30;98.00;;;;;;5074347;28;20939;-76
2021/08/14 02:44:03;;;;;;;2.20;1.63;;;19.40;98.00;;;;;;5073759;28;20494;-76
2021/08/14 02:46:30;;;;;;;2.63;1.67;;;19.30;98.00;;;;;;5056206;28;20516;-76
2021/08/14 02:48:57;;;;;;;1.73;1.43;;;19.20;98.00;;;;;;5074108;28;20553;-76
2021/08/14 02:51:24;;;;;;;1.50;1.50;;;19.10;98.00;;;;;;5074096;28;20489;-76
2021/08/14 02:53:53;;;;;;;2.73;2.03;;;19.00;98.00;;;;;;5073644;28;20510;-75
2021/08/14 02:56:20;;;;;;;2.83;1.87;;;18.80;98.00;;;;;;5073965;28;20487;-75
2021/08/14 02:58:47;;;;;;;4.30;2.07;;;18.80;98.00;;;;;;5073618;28;20548;-76
2021/08/14 03:01:14;;;;;;;3.87;1.87;;;18.70;98.00;;;;;;5073732;28;20461;-76
2021/08/14 03:03:42;;;;;;;2.63;2.10;;;18.70;98.00;;;;;;5055669;28;20460;-76
2021/08/14 03:06:26;;;;;;;3.60;2.13;;;18.80;98.00;;;;;;5073317;28;21127;-75
2021/08/14 03:08:55;;;;;;;1.70;1.40;;;18.80;98.00;;;;;;5073241;28;20484;-76
2021/08/14 03:11:22;;;;;;;2.37;1.77;;;18.90;98.00;;;;;;5073457;28;20457;-76
2021/08/14 03:13:49;;;;;;;1.60;1.37;;;18.70;98.00;;;;;;5073218;28;20511;-75
2021/08/14 03:16:16;;;;;;;1.53;1.43;;;18.60;98.00;;;;;;5073308;28;20943;-76
2021/08/14 03:18:43;;;;;;;3.20;2.17;;;18.60;98.00;;;;;;5073075;28;20493;-76
2021/08/14 03:21:10;;;;;;;3.27;2.20;;;18.40;98.00;;;;;;5073246;28;20903;-76
2021/08/14 03:23:37;;;;;;;3.90;2.53;;;18.50;98.00;;;;;;5073073;28;20489;-75
2021/08/14 03:26:05;;;;;;;2.17;1.50;;;18.50;98.00;;;;;;5073217;28;21144;-76
2021/08/14 03:28:32;;;;;;;1.40;1.30;;;18.60;98.00;;;;;;5073094;28;20484;-75
2021/08/14 03:30:59;;;;;;;1.90;1.80;;;18.50;98.00;;;;;;5073161;28;20927;-76
2021/08/14 03:33:26;;;;;;;2.50;1.90;;;18.50;98.00;;;;;;5072522;28;20882;-75
2021/08/14 03:35:53;;;;;;;1.87;1.73;;;18.50;98.00;;;;;;5073055;28;20849;-75
2021/08/14 03:38:20;;;;;;;1.90;1.67;;;18.40;98.00;;;;;;5072958;28;20955;-75
2021/08/14 03:40:47;;;;;;;1.60;1.47;;;18.30;98.00;;;;;;5072750;28;20504;-76
2021/08/14 03:43:18;;;;;;;2.17;1.87;;;18.30;98.00;;;;;;5072667;28;20461;-76
2021/08/14 03:45:46;;;;;;;3.00;2.00;;;18.40;98.00;;;;;;5072735;28;20495;-76
2021/08/14 03:48:13;;;;;;;3.73;2.37;;;18.40;98.00;;;;;;5072660;28;20488;-76
2021/08/14 03:50:40;;;;;;;2.40;1.73;;;18.30;98.00;;;;;;5072404;28;20514;-76
2021/08/14 03:53:07;;;;;;;1.40;1.37;;;18.20;98.00;;;;;;5072646;28;20503;-76
2021/08/14 03:55:34;;;;;;;2.50;1.80;;;18.10;98.00;;;;;;5054844;28;20448;-76
2021/08/14 03:58:02;;;;;;;2.80;2.10;;;18.10;98.00;;;;;;5072491;28;20960;-75
2021/08/14 04:00:30;;;;;;;2.80;1.80;;;18.00;98.00;;;;;;5071801;28;20985;-76
2021/08/14 04:02:58;;;;;;;2.47;1.73;;;17.90;98.00;;;;;;5072290;28;20452;-76
2021/08/14 04:05:25;;;;;;;2.50;1.83;;;17.80;98.00;;;;;;5072515;28;20453;-76
2021/08/14 04:07:52;;;;;;;1.63;1.37;;;17.80;98.00;;;;;;5072432;28;20907;-75
2021/08/14 04:10:19;;;;;;;3.43;1.73;;;17.80;98.00;;;;;;5072742;28;20448;-76
2021/08/14 04:12:46;;;;;;;1.40;1.37;;;17.80;98.00;;;;;;5072388;28;20453;-76
2021/08/14 04:15:14;;;;;;;1.60;1.43;;;17.90;98.00;;;;;;5072207;28;20487;-76
2021/08/14 04:17:42;;;;;;;2.40;1.80;;;18.00;98.00;;;;;;5072246;28;20950;-76
2021/08/14 04:20:10;;;;;;;1.60;1.50;;;18.10;98.00;;;;;;5071953;28;20518;-77
2021/08/14 04:22:37;;;;;;;2.00;1.77;;;18.10;98.00;;;;;;5072142;28;20492;-75
2021/08/14 04:25:07;;;;;;;2.07;1.63;;;18.00;98.00;;;;;;5071958;28;20540;-76
2021/08/14 04:27:34;;;;;;;2.60;2.00;;;17.90;98.00;;;;;;5071826;28;20567;-76
2021/08/14 04:30:04;;;;;;;1.97;1.43;;;17.90;98.00;;;;;;5071777;28;20483;-75
2021/08/14 04:32:33;;;;;;;2.37;1.33;;;18.10;98.00;;;;;;5071819;28;20490;-76
2021/08/14 04:35:04;;;;;;;2.50;2.03;;;18.20;98.00;;;;;;5071830;28;20489;-76
2021/08/14 04:37:32;;;;;;;1.83;1.63;;;18.10;98.00;;;;;;5071880;28;20501;-75
2021/08/14 04:39:59;;;;;;;3.13;1.97;;;18.00;98.00;;;;;;5071835;28;20529;-76
2021/08/14 04:42:26;;;;;;;2.17;1.70;;;18.00;98.00;;;;;;5072009;28;20536;-75
2021/08/14 04:44:53;;;;;;;1.87;1.50;;;18.00;98.00;;;;;;5071886;28;20904;-75
2021/08/14 04:47:20;;;;;;;1.43;1.33;;;18.10;98.00;;;;;;5071684;28;20564;-76
2021/08/14 04:49:47;;;;;;;1.70;1.60;;;18.20;98.00;;;;;;5054102;28;20488;-75
2021/08/14 04:52:15;;;;;;;2.20;1.77;;;18.30;98.00;;;;;;5053994;28;20525;-76
2021/08/14 04:54:42;;;;;;;1.70;1.50;;;18.30;98.00;;;;;;5053697;28;20496;-76
2021/08/14 04:57:13;;;;;;;2.87;2.07;;;18.40;98.00;;;;;;5071788;28;20484;-76
2021/08/14 04:59:40;;;;;;;1.47;1.40;;;18.40;98.00;;;;;;5070947;28;20501;-76
2021/08/14 05:02:07;;;;;;;1.60;1.40;;;18.30;98.00;;;;;;5070889;28;20526;-76
2021/08/14 05:04:34;;;;;;;1.77;1.50;;;18.20;98.00;;;;;;5071604;28;21139;-76
2021/08/14 05:07:01;;;;;;;1.60;1.33;;;18.20;98.00;;;;;;5071641;28;20527;-76
2021/08/14 05:09:29;;;;;;;1.80;1.53;;;18.20;98.00;;;;;;5071571;28;20510;-75
2021/08/14 05:11:56;;;;;;;2.60;1.80;;;18.00;98.00;;;;;;5071501;28;20453;-76
2021/08/14 05:14:23;;;;;;;1.67;1.47;;;18.00;98.00;;;;;;5071354;28;21017;-76
2021/08/14 05:16:50;;;;;;;2.43;1.60;;;18.00;98.00;;;;;;5071517;28;20500;-76
2021/08/14 05:19:17;;;;;;;1.93;1.70;;;18.10;98.00;;;;;;5071395;28;20491;-76
2021/08/14 05:21:44;;;;;;;1.77;1.57;;;18.10;98.00;;;;;;5071467;28;20465;-76
2021/08/14 05:24:11;;;;;;;1.30;1.27;;;18.10;98.00;;;;;;5071488;28;20518;-75
2021/08/14 05:26:40;;;;;;;2.10;1.60;;;18.10;98.00;;;;;;5071368;28;20917;-76
2021/08/14 05:29:07;;;;;;;2.67;2.27;;;18.30;98.00;;;;;;5071674;28;20480;-75
2021/08/14 05:31:34;;;;;;;2.20;1.93;;;18.40;98.00;;;;;;5071450;28;20456;-76
2021/08/14 05:34:02;;;;;;;1.90;1.80;;;18.60;98.00;;;;;;5053544;28;20493;-76
2021/08/14 05:36:30;;;;;;;2.30;2.00;;;18.70;98.00;;;;;;5071627;28;20453;-76
2021/08/14 05:38:57;;;;;;;2.47;1.70;;;18.80;98.00;;;;;;5071170;28;20462;-76
2021/08/14 05:41:24;;;;;;;2.87;2.20;;;18.80;98.00;;;;;;5071171;28;20963;-76
2021/08/14 05:43:53;;;;;;;1.50;1.33;;;18.80;98.00;;;;;;5071088;28;20457;-76
2021/08/14 05:46:20;;;;;;;1.63;1.53;;;18.80;98.00;;;;;;5071054;28;20570;-75
2021/08/14 05:48:47;;;;;;;1.53;1.53;;;18.80;98.00;;;;;;5070919;28;20542;-76
2021/08/14 05:51:15;;;;;;;1.97;1.80;;;18.70;98.00;;;;;;5071178;28;20460;-76
2021/08/14 05:53:42;;;;;;;2.50;1.87;;;18.70;98.00;;;;;;5071199;28;20449;-76
2021/08/14 05:56:09;;;;;;;1.60;1.50;;;18.70;98.00;;;;;;5053215;28;20488;-77
2021/08/14 05:58:36;;;;;;;1.40;1.40;;;18.70;98.00;;;;;;5070901;28;20510;-76
2021/08/14 06:01:05;;;;;;;3.27;2.00;;;18.80;98.00;;;;;;5071131;28;20547;-76
2021/08/14 06:03:34;;;;;;;1.70;1.53;;;18.90;98.00;;;;;;5070892;28;20452;-76
2021/08/14 06:06:01;;;;;;;5.03;2.20;;;19.10;98.00;;;;;;5070848;28;20457;-76
2021/08/14 06:08:30;;;;;;;1.60;1.50;;;19.20;98.00;;;;;;5070952;28;20484;-77
2021/08/14 06:10:57;;;;;;;2.10;2.00;;;19.40;98.00;;;;;;5070917;28;20464;-76
2021/08/14 06:13:24;;;;;;;4.10;2.77;;;19.50;98.00;;;;;;5071692;28;20485;-76
2021/08/14 06:15:51;;;;;;;3.60;2.33;;;19.50;98.00;;;;;;5074517;28;20468;-76
2021/08/14 06:18:20;;;;;;;2.20;2.00;;;19.50;98.00;;;;;;5056694;28;20774;-76
2021/08/14 06:20:47;;;;;;;2.47;1.77;;;19.70;98.00;;;;;;5074413;28;20996;-76
2021/08/14 06:23:14;;;;;;;2.83;1.77;;;19.70;98.00;;;;;;5074186;28;20493;-75
2021/08/14 06:25:40;;;;;;;1.80;1.57;;;19.70;98.00;;;;;;5074401;28;20487;-76
2021/08/14 06:28:08;;;;;;;1.63;1.63;;;19.80;98.00;;;;;;5074185;28;20520;-76
2021/08/14 06:30:35;;;;;;;2.57;2.07;;;19.80;98.00;;;;;;5056590;28;20858;-77
2021/08/14 06:33:02;;;;;;;1.97;1.63;;;19.90;98.00;;;;;;5074025;28;20460;-76
2021/08/14 06:35:31;;;;;;;2.20;2.00;;;20.10;98.00;;;;;;5074127;28;20539;-77
2021/08/14 06:37:58;;;;;;;1.97;1.70;;;20.30;98.00;;;;;;5073604;28;20881;-75
2021/08/14 06:40:25;;;;;;;2.03;1.90;;;20.50;98.00;;;;;;5074131;28;20488;-77
2021/08/14 06:42:52;;;;;;;1.40;1.20;;;20.50;98.00;;;;;;5074089;28;20496;-77
2021/08/14 06:45:20;;;;;;;2.47;1.80;;;20.60;98.00;;;;;;5073999;28;20488;-76
2021/08/14 06:47:47;;;;;;;2.17;1.53;;;20.70;98.00;;;;;;5056441;28;20540;-75
2021/08/14 06:50:15;;;;;;;2.70;2.03;;;20.70;98.00;;;;;;5074121;28;20856;-75
2021/08/14 06:52:44;;;;;;;3.07;2.30;;;20.70;98.00;;;;;;5056375;28;20527;-75
2021/08/14 06:55:11;;;;;;;3.30;2.67;;;20.80;98.00;;;;;;5073800;28;20465;-77
2021/08/14 06:57:38;;;;;;;2.00;1.80;;;20.80;98.00;;;;;;5073909;28;20604;-76
2021/08/14 07:00:07;;;;;;;2.20;1.57;;;20.90;98.00;;;;;;5073557;28;20489;-76
2021/08/14 07:02:34;;;;;;;1.77;1.53;;;20.90;98.00;;;;;;5073612;28;20872;-75
2021/08/14 07:05:02;;;;;;;2.83;2.33;;;21.00;98.00;;;;;;5073498;28;20986;-76
2021/08/14 07:07:28;;;;;;;1.77;1.77;;;21.10;98.00;;;;;;5055508;28;20523;-77
2021/08/14 07:09:57;;;;;;;2.00;1.90;;;21.20;98.00;;;;;;5073287;28;20514;-76
2021/08/14 07:12:27;;;;;;;2.33;1.80;;;21.40;98.00;;;;;;5073631;28;20525;-76
2021/08/14 07:14:55;;;;;;;2.00;1.73;;;21.50;98.00;;;;;;5073322;28;20453;-77
2021/08/14 07:17:22;;;;;;;2.40;1.93;;;21.70;98.00;;;;;;5055798;28;20453;-77
2021/08/14 07:19:49;;;;;;;1.60;1.50;;;21.90;98.00;;;;;;5073295;28;20461;-77
2021/08/14 07:22:16;;;;;;;3.00;2.13;;;21.90;98.00;;;;;;5073244;28;20875;-75
2021/08/14 07:24:43;;;;;;;2.53;1.70;;;22.10;98.00;;;;;;5072382;28;20461;-76
2021/08/14 07:27:11;;;;;;;1.83;1.80;;;22.40;98.00;;;;;;5070978;28;20539;-77
2021/08/14 07:29:38;;;;;;;2.37;1.83;;;22.50;98.00;;;;;;5084063;28;20875;-75
2021/08/14 07:32:06;;;;;;;2.37;2.27;;;22.70;98.00;;;;;;5075103;28;20503;-76
2021/08/14 07:34:33;;;;;;;1.70;1.60;;;22.80;98.00;;;;;;5093037;28;20491;-77
2021/08/14 07:37:00;;;;;;;2.37;2.17;;;23.00;98.00;;;;;;5093234;28;20491;-76
2021/08/14 07:39:27;;;;;;;1.80;1.63;;;23.10;98.00;;;;;;5092986;28;20488;-77
2021/08/14 07:41:55;;;;;;;2.20;1.90;;;23.20;98.00;;;;;;5093001;28;20501;-77
2021/08/14 07:44:32;;;;;;;2.97;2.50;;;23.40;98.00;;;;;;5092162;28;20977;-75
2021/08/14 07:46:59;;;;;;;2.63;2.00;;;23.50;98.00;;;;;;5092207;28;20494;-77
2021/08/14 07:49:30;;;;;;;2.13;1.93;;;23.50;98.00;;;;;;5091996;28;20521;-76
2021/08/14 07:51:56;;;;;;;2.13;1.73;;;23.60;98.00;;;;;;5091655;28;20460;-77
2021/08/14 07:54:23;;;;;;;2.37;1.87;;;23.60;98.00;;;;;;5092608;28;20495;-76
2021/08/14 07:56:50;;;;;;;4.00;2.00;;;23.70;98.00;;;;;;5092945;28;20499;-77
2021/08/14 07:59:18;;;;;;;2.50;2.00;;;23.70;98.00;;;;;;5074820;28;20456;-77
2021/08/14 08:01:47;;;;;;;3.03;2.20;;;23.80;98.00;;;;;;5075231;28;20963;-78
2021/08/14 08:04:14;;;;;;;1.83;1.70;;;24.00;98.00;;;;;;5092827;28;20502;-76
2021/08/14 08:06:41;;;;;;;2.30;1.97;;;24.10;98.00;;;;;;5092897;28;20833;-76
2021/08/14 08:09:08;;;;;;;3.30;2.00;;;24.20;98.00;;;;;;5092747;28;21035;-76
2021/08/14 08:11:35;;;;;;;3.37;1.90;;;24.30;98.00;;;;;;5074962;28;20483;-76
2021/08/14 08:14:02;;;;;;;2.90;1.90;;;24.50;98.00;;;;;;5092719;28;20452;-76
2021/08/14 08:16:29;;;;;;;4.33;2.70;;;24.50;98.00;;;;;;5092975;28;20500;-76
2021/08/14 08:18:58;;;;;;;2.77;2.00;;;24.50;98.00;;;;;;5074292;28;20466;-78
2021/08/14 08:21:26;;;;;;;2.47;1.97;;;24.60;98.00;;;;;;5092301;28;20452;-77
2021/08/14 08:23:53;;;;;;;3.47;2.40;;;24.70;98.00;;;;;;5092533;28;20460;-76
2021/08/14 08:26:20;;;;;;;1.77;1.77;;;24.80;98.00;;;;;;5092128;28;20498;-77
2021/08/14 08:28:47;;;;;;;2.50;2.10;;;25.00;98.00;;;;;;5091899;28;21062;-77
2021/08/14 08:31:14;;;;;;;3.17;2.43;;;25.00;98.00;;;;;;5092262;28;20506;-78
2021/08/14 08:33:41;;;;;;;3.20;2.20;;;25.20;98.00;;;;;;5092024;28;20966;-77
2021/08/14 08:36:10;;;;;;;3.43;2.43;;;25.20;98.00;;;;;;5091945;28;20499;-77
2021/08/14 08:38:37;;;;;;;2.80;2.27;;;25.40;98.00;;;;;;5091463;28;20455;-76
2021/08/14 08:41:04;;;;;;;3.57;2.40;;;25.40;98.00;;;;;;5092193;28;20459;-77
2021/08/14 08:43:31;;;;;;;2.40;2.20;;;25.60;98.00;;;;;;5091906;28;20467;-76
2021/08/14 08:45:58;;;;;;;4.70;2.33;;;25.80;98.00;;;;;;5092024;28;20480;-78
2021/08/14 08:48:25;;;;;;;3.70;1.60;;;25.80;98.00;;;;;;5091870;28;20484;-76
2021/08/14 08:50:55;;;;;;;3.80;2.13;;;26.00;98.00;;;;;;5091817;28;21019;-78
2021/08/14 08:53:24;;;;;;;2.80;1.93;;;26.00;98.00;;;;;;5091535;28;20952;-78
2021/08/14 08:55:51;;;;;;;2.80;2.30;;;26.00;98.00;;;;;;5091683;28;20509;-78
2021/08/14 08:58:18;;;;;;;2.97;2.27;;;26.10;98.00;;;;;;5092048;28;20541;-76
2021/08/14 09:00:45;;;;;;;2.30;1.80;;;26.10;98.00;;;;;;5091627;28;20455;-77
2021/08/14 09:03:14;;;;;;;2.90;2.10;;;26.30;98.00;;;;;;5091865;28;20456;-78
2021/08/14 09:05:49;;;;;;;2.70;2.13;;;26.40;98.00;;;;;;5091783;28;20999;-75
2021/08/14 09:08:16;;;;;;;3.47;1.97;;;26.60;98.00;;;;;;5091744;28;20511;-76
2021/08/14 09:10:45;;;;;;;2.47;2.10;;;26.60;98.00;;;;;;5091741;28;20455;-78
2021/08/14 09:13:14;;;;;;;3.63;2.27;;;26.70;98.00;;;;;;5091771;28;20496;-76
2021/08/14 09:15:41;;;;;;;2.90;1.90;;;26.80;98.00;;;;;;5091653;28;20505;-76
2021/08/14 09:18:10;;;;;;;2.97;2.23;;;26.90;98.00;;;;;;5091851;28;20537;-76
2021/08/14 09:20:51;;;;;;;3.50;2.37;;;27.10;98.00;;;;;;5091565;28;20470;-77
2021/08/14 09:23:19;;;;;;;3.93;2.60;;;27.20;97.40;;;;;;5091755;28;20563;-75
2021/08/14 09:25:48;;;;;;;3.90;2.23;;;27.30;98.00;;;;;;5091462;28;20471;-76
2021/08/14 09:28:17;;;;;;;4.03;2.20;;;27.40;98.00;;;;;;5091645;28;20831;-76
2021/08/14 09:30:50;;;;;;;2.50;1.90;;;27.60;95.80;;;;;;5091621;28;20460;-75
2021/08/14 09:33:20;;;;;;;3.40;2.07;;;27.70;93.80;;;;;;5091564;28;20528;-77
2021/08/14 09:35:48;;;;;;;3.50;2.73;;;27.70;93.30;;;;;;5091148;28;20942;-77
2021/08/14 09:38:16;;;;;;;3.47;2.40;;;27.70;94.60;;;;;;5091746;28;20483;-77
2021/08/14 09:40:44;;;;;;;4.63;2.87;;;27.70;94.90;;;;;;5091096;28;20452;-76
2021/08/14 09:43:14;;;;;;;3.87;2.53;;;27.70;95.40;;;;;;5091563;28;20452;-77
2021/08/14 09:45:54;;;;;;;3.20;2.00;;;27.80;95.50;;;;;;5091168;28;20543;-75
2021/08/14 09:48:23;;;;;;;4.67;2.30;;;27.90;93.60;;;;;;5092313;28;20506;-76
2021/08/14 09:50:51;;;;;;;2.30;2.10;;;28.00;94.30;;;;;;5095151;28;20509;-77
2021/08/14 09:53:20;;;;;;;4.23;2.47;;;28.00;95.30;;;;;;5095440;28;20864;-75
2021/08/14 09:55:50;;;;;;;3.30;2.50;;;28.30;95.50;;;;;;5095106;28;20455;-77
2021/08/14 09:58:24;;;;;;;2.57;2.00;;;28.50;93.20;;;;;;5095031;28;20852;-75
2021/08/14 10:00:52;;;;;;;4.37;2.00;;;28.60;92.60;;;;;;5094912;28;20467;-76
2021/08/14 10:03:19;;;;;;;3.67;2.40;;;28.70;91.10;;;;;;5094958;28;20876;-76
2021/08/14 10:05:47;;;;;;;3.80;2.43;;;28.70;91.70;;;;;;5094799;28;20515;-77
2021/08/14 10:08:14;;;;;;;2.13;1.93;;;28.80;91.00;;;;;;5094852;28;20483;-75
2021/08/14 10:10:42;;;;;;;2.53;1.80;;;28.90;91.30;;;;;;5094764;28;20797;-77
2021/08/14 10:13:11;;;;;;;2.23;1.97;;;29.00;90.40;;;;;;5094757;28;20448;-75
2021/08/14 10:15:40;;;;;;;2.77;2.40;;;29.20;90.60;;;;;;5094716;28;20974;-77
2021/08/14 10:18:07;;;;;;;4.23;2.57;;;29.20;89.70;;;;;;5094746;28;20536;-76
2021/08/14 10:20:35;;;;;;;3.20;2.27;;;29.40;90.10;;;;;;5094561;28;20452;-76
2021/08/14 10:23:04;;;;;;;3.53;2.17;;;29.50;89.50;;;;;;5094541;28;20995;-75
2021/08/14 10:25:34;;;;;;;2.70;2.13;;;29.50;89.00;;;;;;5094597;28;20518;-76
2021/08/14 10:28:02;;;;;;;4.90;2.77;;;29.60;89.50;;;;;;5093668;28;20515;-74
2021/08/14 10:30:42;;;;;;;3.40;2.40;;;29.60;89.40;;;;;;5094586;28;20491;-74
2021/08/14 10:33:31;;;;;;;3.50;2.33;;;29.80;87.70;;;;;;5094684;28;20513;-77
2021/08/14 10:35:59;;;;;;;3.73;2.23;;;29.80;87.00;;;;;;5094560;28;20450;-74
2021/08/14 10:38:40;;;;;;;3.50;2.60;;;30.00;87.90;;;;;;5095840;28;20501;-75
2021/08/14 10:41:08;;;;;;;2.97;2.10;;;30.10;87.90;;;;;;5095206;28;20551;-76
2021/08/14 10:44:01;;;;;;;3.87;2.63;;;30.20;88.40;;;;;;5094706;28;20483;-77
2021/08/14 10:46:44;;;;;;;3.13;2.10;;;30.30;87.10;;;;;;5094809;28;21111;-77
2021/08/14 10:49:13;;;;;;;4.30;2.40;;;30.40;85.50;;;;;;5094511;28;20483;-77
2021/08/14 10:52:13;;;;;;;3.30;2.47;;;30.30;84.90;;;;;;5094357;28;20456;-77
2021/08/14 10:55:10;;;;;;;2.93;2.30;;;30.20;85.90;;;;;;5088083;28;20460;-78
2021/08/14 10:57:45;;;;;;;4.13;2.40;;;30.50;88.20;;;;;;5094267;28;20460;-78
2021/08/14 11:00:21;;;;;;;3.03;2.20;;;30.70;85.70;;;;;;5093438;28;20549;-77
2021/08/14 11:03:06;;;;;;;4.27;2.37;;;30.70;84.80;;;;;;5093783;28;20460;-77
2021/08/14 11:05:34;;;;;;;2.73;2.10;;;30.80;84.00;;;;;;5094184;28;20452;-77
2021/08/14 11:08:02;;;;;;;3.27;2.43;;;30.80;84.00;;;;;;5093867;28;20491;-77
2021/08/14 11:10:38;;;;;;;3.37;2.50;;;30.90;85.70;;;;;;5093551;28;20455;-77
2021/08/14 11:13:42;;;;;;;3.43;2.60;;;31.10;84.20;;;;;;5093860;28;20451;-77
2021/08/14 11:16:10;;;;;;;2.27;1.93;;;31.30;81.90;;;;;;5093749;28;20448;-78
2021/08/14 11:18:58;;;;;;;2.70;2.30;;;31.40;84.00;;;;;;5075467;28;20471;-77
2021/08/14 11:21:45;;;;;;;3.00;2.37;;;31.60;83.20;;;;;;5093842;28;20502;-76
2021/08/14 11:24:38;;;;;;;3.00;2.30;;;31.90;82.70;;;;;;5093855;28;20464;-77
2021/08/14 11:27:22;;;;;;;4.37;2.30;;;32.10;83.30;;;;;;5094584;28;20991;-77
2021/08/14 11:30:06;;;;;;;4.27;2.60;;;32.30;81.30;;;;;;5093251;28;20490;-77
2021/08/14 11:32:34;;;;;;;2.50;1.90;;;32.00;81.00;;;;;;5093457;28;20881;-77
2021/08/14 11:35:04;;;;;;;2.70;2.10;;;32.00;80.30;;;;;;5093642;28;20522;-78
2021/08/14 11:37:31;;;;;;;3.47;2.70;;;32.00;80.30;;;;;;5094785;28;20456;-76
2021/08/14 11:40:00;;;;;;;3.57;2.50;;;32.30;81.80;;;;;;5093901;28;20476;-77
2021/08/14 11:42:29;;;;;;;3.00;2.27;;;32.50;79.40;;;;;;5093340;28;20499;-77
2021/08/14 11:44:57;;;;;;;3.90;2.70;;;32.60;79.30;;;;;;5093451;28;20452;-76
2021/08/14 11:47:35;;;;;;;3.33;2.37;;;32.80;79.80;;;;;;5093276;28;20483;-76
2021/08/14 11:50:05;;;;;;;2.60;2.20;;;32.90;77.00;;;;;;5093137;28;21024;-76
2021/08/14 11:52:32;;;;;;;2.60;1.87;;;32.80;79.20;;;;;;5093278;28;20448;-76
2021/08/14 11:55:03;;;;;;;3.57;2.53;;;33.00;78.50;;;;;;5093448;28;20509;-77
2021/08/14 11:57:33;;;;;;;3.20;2.43;;;33.10;79.00;;;;;;5093318;28;20928;-75
2021/08/14 12:00:02;;;;;;;3.20;2.50;;;32.80;78.90;;;;;;5093144;28;20494;-78
2021/08/14 12:02:29;;;;;;;3.07;2.30;;;32.80;78.70;;;;;;5093038;28;20456;-79
2021/08/14 12:04:57;;;;;;;3.37;2.80;;;32.60;77.60;;;;;;5093015;28;21018;-78
2021/08/14 12:07:25;;;;;;;3.30;2.40;;;32.70;80.20;;;;;;5075010;28;20452;-77
2021/08/14 12:09:53;;;;;;;3.73;2.77;;;32.80;78.40;;;;;;5092703;28;20491;-76
2021/08/14 12:12:22;;;;;;;5.20;3.00;;;32.90;78.40;;;;;;5092778;28;20444;-75
2021/08/14 12:14:50;;;;;;;3.40;2.43;;;32.70;77.60;;;;;;5092640;28;21018;-74
2021/08/14 12:17:17;;;;;;;3.00;2.37;;;32.80;79.20;;;;;;5092633;28;20861;-73
2021/08/14 12:19:53;;;;;;;4.40;2.40;;;32.90;78.70;;;;;;5092602;28;20483;-73
2021/08/14 12:22:20;;;;;;;2.93;2.40;;;32.90;79.40;;;;;;5074802;28;20455;-74
2021/08/14 12:24:49;;;;;;;5.10;2.50;;;32.80;78.00;;;;;;5092257;28;20456;-73
2021/08/14 12:27:28;;;;;;;3.13;2.40;;;32.80;77.40;;;;;;5092555;28;20544;-75
2021/08/14 12:30:14;;;;;;;3.97;2.40;;;32.80;78.00;;;;;;5091908;28;20490;-73
2021/08/14 12:32:41;;;;;;;3.03;2.53;;;32.90;77.40;;;;;;5091871;28;20843;-74
2021/08/14 12:35:20;;;;;;;3.73;2.33;;;33.00;76.20;;;;;;5091904;28;20487;-74
2021/08/14 12:37:47;;;;;;;3.13;2.10;;;33.00;78.40;;;;;;5092145;28;20458;-75
2021/08/14 12:40:19;;;;;;;3.93;2.73;;;33.00;76.80;;;;;;5091804;28;20538;-74
2021/08/14 12:42:46;;;;;;;3.77;2.37;;;32.90;79.80;;;;;;5092043;28;20502;-73
2021/08/14 12:45:17;;;;;;;7.27;2.90;;;32.90;76.50;;;;;;5092026;28;20447;-73
2021/08/14 12:47:45;;;;;;;4.40;2.70;;;32.90;76.70;;;;;;5091931;28;20870;-73
2021/08/14 12:50:25;;;;;;;3.70;2.40;;;33.10;78.30;;;;;;5091794;28;20491;-74
2021/08/14 12:53:00;;;;;;;4.10;2.70;;;33.20;77.30;;;;;;5091443;28;20591;-74
2021/08/14 12:55:34;;;;;;;6.93;2.47;;;33.10;77.20;;;;;;5092807;28;20448;-74
2021/08/14 12:58:02;;;;;;;4.30;2.60;;;33.10;77.80;;;;;;5092553;28;20455;-74